createdAt,value
2023-02-03T00:01:03.960Z,100.00
2023-02-03T00:03:30.370Z,100.00
2023-02-03T00:05:58.171Z,100.00
2023-02-03T00:08:24.539Z,100.00
2023-02-03T00:10:50.996Z,100.00
2023-02-03T00:13:17.524Z,100.00
2023-02-03T00:15:43.879Z,100.00
2023-02-03T00:18:10.349Z,100.00
2023-02-03T00:20:36.730Z,100.00
2023-02-03T00:23:05.800Z,100.00
2023-02-03T00:25:32.235Z,100.00
2023-02-03T00:27:58.652Z,100.00
2023-02-03T00:30:25.434Z,100.00
2023-02-03T00:32:51.989Z,100.00
2023-02-03T00:35:18.430Z,100.00
2023-02-03T00:37:50.321Z,100.00
2023-02-03T00:40:18.579Z,100.00
2023-02-03T00:42:44.948Z,100.00
2023-02-03T00:45:11.609Z,100.00
2023-02-03T00:47:38.181Z,100.00
2023-02-03T00:50:05.570Z,100.00
2023-02-03T00:52:32.060Z,100.00
2023-02-03T00:54:58.666Z,100.00
2023-02-03T00:57:26.428Z,100.00
2023-02-03T00:59:52.832Z,100.00
2023-02-03T01:02:19.243Z,100.00
2023-02-03T01:04:45.716Z,100.00
2023-02-03T01:07:12.519Z,100.00
2023-02-03T01:09:39.155Z,100.00
2023-02-03T01:12:06.100Z,100.00
2023-02-03T01:14:34.137Z,100.00
2023-02-03T01:17:01.233Z,100.00
2023-02-03T01:19:27.686Z,100.00
2023-02-03T01:21:54.141Z,100.00
2023-02-03T01:24:20.519Z,100.00
2023-02-03T01:26:46.872Z,100.00
2023-02-03T01:29:14.080Z,100.00
2023-02-03T01:31:42.244Z,100.00
2023-02-03T01:34:12.542Z,100.00
2023-02-03T01:36:39.391Z,100.00
2023-02-03T01:39:06.336Z,100.00
2023-02-03T01:41:34.981Z,100.00
2023-02-03T01:44:02.663Z,100.00
2023-02-03T01:46:33.657Z,100.00
2023-02-03T01:49:08.066Z,100.00
2023-02-03T01:51:35.392Z,100.00
2023-02-03T01:54:02.684Z,100.00
2023-02-03T01:56:34.993Z,100.00
2023-02-03T01:59:01.573Z,100.00
2023-02-03T02:01:30.107Z,100.00
2023-02-03T02:03:59.631Z,100.00
2023-02-03T02:06:27.431Z,100.00
2023-02-03T02:08:56.312Z,100.00
2023-02-03T02:11:22.691Z,100.00
2023-02-03T02:13:52.212Z,100.00
2023-02-03T02:16:30.709Z,100.00
2023-02-03T02:19:17.952Z,100.00
2023-02-03T02:21:57.976Z,100.00
2023-02-03T02:25:06.074Z,99.92
2023-02-03T02:28:10.542Z,100.00
2023-02-03T02:30:47.346Z,100.00
2023-02-03T02:33:26.044Z,99.13
2023-02-03T02:35:58.106Z,99.54
2023-02-03T02:38:37.169Z,98.85
2023-02-03T02:41:07.959Z,99.84
2023-02-03T02:43:40.769Z,98.78
2023-02-03T02:46:11.615Z,99.76
2023-02-03T02:48:44.542Z,98.71
2023-02-03T02:51:13.296Z,98.48
2023-02-03T02:53:44.269Z,100.00
2023-02-03T02:56:15.306Z,100.00
2023-02-03T02:58:46.431Z,99.14
2023-02-03T03:01:13.316Z,98.44
2023-02-03T03:03:41.119Z,99.85
2023-02-03T03:06:10.568Z,98.49
2023-02-03T03:08:41.773Z,100.00
2023-02-03T03:11:08.420Z,99.71
2023-02-03T03:13:38.889Z,98.17
2023-02-03T03:16:07.359Z,98.17
2023-02-03T03:18:38.690Z,97.65
2023-02-03T03:21:07.699Z,99.07
2023-02-03T03:23:38.208Z,98.26
2023-02-03T03:26:09.853Z,98.01
2023-02-03T03:28:45.333Z,98.00
2023-02-03T03:31:11.876Z,97.68
2023-02-03T03:33:38.995Z,97.37
2023-02-03T03:36:15.448Z,98.64
2023-02-03T03:38:45.947Z,98.08
2023-02-03T03:41:19.677Z,96.93
2023-02-03T03:43:47.088Z,97.27
2023-02-03T03:46:18.833Z,97.13
2023-02-03T03:48:51.084Z,97.96
2023-02-03T03:51:23.206Z,98.83
2023-02-03T03:53:51.377Z,99.12
2023-02-03T03:56:22.113Z,98.15
2023-02-03T03:58:50.586Z,95.93
2023-02-03T04:01:17.923Z,97.26
2023-02-03T04:03:48.189Z,95.14
2023-02-03T04:06:15.346Z,96.88
2023-02-03T04:08:43.083Z,96.55
2023-02-03T04:11:09.434Z,97.05
2023-02-03T04:13:35.947Z,95.72
2023-02-03T04:16:02.432Z,96.93
2023-02-03T04:18:28.865Z,95.93
2023-02-03T04:20:55.261Z,98.06
2023-02-03T04:23:21.630Z,96.16
2023-02-03T04:25:49.314Z,95.44
2023-02-03T04:28:15.823Z,95.46
2023-02-03T04:30:42.262Z,94.20
2023-02-03T04:33:08.676Z,95.06
2023-02-03T04:35:35.104Z,94.94
2023-02-03T04:38:01.491Z,95.96
2023-02-03T04:40:28.136Z,95.72
2023-02-03T04:42:56.037Z,95.25
2023-02-03T04:45:22.532Z,95.12
2023-02-03T04:47:54.118Z,96.94
2023-02-03T04:50:20.885Z,96.88
2023-02-03T04:52:47.297Z,95.13
2023-02-03T04:55:13.701Z,95.27
2023-02-03T04:57:40.457Z,95.39
2023-02-03T05:00:10.132Z,95.54
2023-02-03T05:02:36.509Z,95.83
2023-02-03T05:05:03.121Z,94.75
2023-02-03T05:07:29.491Z,95.38
2023-02-03T05:09:55.878Z,94.65
2023-02-03T05:12:22.341Z,95.28
2023-02-03T05:14:48.713Z,95.34
2023-02-03T05:17:16.399Z,96.14
2023-02-03T05:19:42.788Z,95.13
2023-02-03T05:22:09.142Z,94.98
2023-02-03T05:24:35.553Z,94.74
2023-02-03T05:27:01.981Z,94.46
2023-02-03T05:29:28.345Z,94.88
2023-02-03T05:31:54.785Z,94.01
2023-02-03T05:34:22.593Z,94.59
2023-02-03T05:36:48.997Z,95.17
2023-02-03T05:39:15.428Z,94.60
2023-02-03T05:41:41.809Z,94.88
2023-02-03T05:44:08.198Z,94.78
2023-02-03T05:46:34.789Z,95.39
2023-02-03T05:49:01.301Z,96.18
2023-02-03T05:51:29.044Z,96.07
2023-02-03T05:53:55.473Z,96.07
2023-02-03T05:56:21.879Z,96.60
2023-02-03T05:58:48.345Z,98.81
2023-02-03T06:01:14.764Z,99.37
2023-02-03T06:03:43.191Z,97.55
2023-02-03T06:06:10.869Z,98.04
2023-02-03T06:08:38.596Z,98.37
2023-02-03T06:11:05.078Z,98.00
2023-02-03T06:13:31.444Z,98.62
2023-02-03T06:15:57.796Z,97.76
2023-02-03T06:18:24.359Z,97.73
2023-02-03T06:20:51.236Z,97.69
2023-02-03T06:23:18.230Z,99.69
2023-02-03T06:25:48.157Z,100.00
2023-02-03T06:28:14.739Z,100.00
2023-02-03T06:30:41.328Z,100.00
2023-02-03T06:33:07.859Z,100.00
2023-02-03T06:35:34.434Z,100.00
2023-02-03T06:38:01.693Z,100.00
2023-02-03T06:40:28.445Z,100.00
2023-02-03T06:42:56.473Z,100.00
2023-02-03T06:45:22.964Z,100.00
2023-02-03T06:47:49.400Z,100.00
2023-02-03T06:50:16.059Z,100.00
2023-02-03T06:52:42.660Z,100.00
2023-02-03T06:55:09.699Z,100.00
2023-02-03T06:57:36.117Z,100.00
2023-02-03T07:00:05.008Z,100.00
2023-02-03T07:02:31.477Z,100.00
2023-02-03T07:04:57.902Z,100.00
2023-02-03T07:07:24.278Z,100.00
2023-02-03T07:09:50.800Z,100.00
2023-02-03T07:12:17.221Z,100.00
2023-02-03T07:14:43.589Z,100.00
2023-02-03T07:17:11.327Z,100.00
2023-02-03T07:19:37.676Z,100.00
2023-02-03T07:22:04.135Z,100.00
2023-02-03T07:24:30.565Z,100.00
2023-02-03T07:26:56.959Z,100.00
2023-02-03T07:29:23.461Z,100.00
2023-02-03T07:31:50.144Z,100.00
2023-02-03T07:34:17.905Z,100.00
2023-02-03T07:36:44.287Z,100.00
2023-02-03T07:39:10.679Z,100.00
2023-02-03T07:41:37.093Z,100.00
2023-02-03T07:44:03.981Z,100.00
2023-02-03T07:46:30.433Z,100.00
2023-02-03T07:48:56.859Z,100.00
2023-02-03T07:51:24.549Z,100.00
2023-02-03T07:53:51.005Z,100.00
2023-02-03T07:56:17.409Z,100.00
2023-02-03T07:58:43.871Z,100.00
2023-02-03T08:01:12.182Z,100.00
2023-02-03T08:03:38.594Z,100.00
2023-02-03T08:06:05.550Z,100.00
2023-02-03T08:08:33.283Z,100.00
2023-02-03T08:10:59.661Z,100.00
2023-02-03T08:13:26.288Z,100.00
2023-02-03T08:15:52.933Z,100.00
2023-02-03T08:18:19.829Z,100.00
2023-02-03T08:20:47.343Z,100.00
2023-02-03T08:23:14.209Z,100.00
2023-02-03T08:25:42.018Z,100.00
2023-02-03T08:28:08.473Z,100.00
2023-02-03T08:30:35.678Z,100.00
2023-02-03T08:33:02.111Z,100.00
2023-02-03T08:35:28.532Z,100.00
2023-02-03T08:37:54.980Z,100.00
2023-02-03T08:40:21.569Z,100.00
2023-02-03T08:42:49.575Z,100.00
2023-02-03T08:45:15.974Z,100.00
2023-02-03T08:47:42.556Z,100.00
2023-02-03T08:50:10.007Z,100.00
2023-02-03T08:52:36.585Z,100.00
2023-02-03T08:55:03.255Z,100.00
2023-02-03T08:57:32.511Z,100.00
2023-02-03T09:00:00.605Z,100.00
2023-02-03T09:02:27.029Z,100.00
2023-02-03T09:04:53.508Z,100.00
2023-02-03T09:07:19.956Z,100.00
2023-02-03T09:09:46.343Z,100.00
2023-02-03T09:12:12.851Z,100.00
2023-02-03T09:14:39.301Z,100.00
2023-02-03T09:17:07.369Z,100.00
2023-02-03T09:19:36.332Z,100.00
2023-02-03T09:22:06.370Z,100.00
2023-02-03T09:24:33.086Z,100.00
2023-02-03T09:26:59.448Z,100.00
2023-02-03T09:29:25.952Z,100.00
2023-02-03T09:31:52.467Z,100.00
2023-02-03T09:34:20.897Z,100.00
2023-02-03T09:36:47.499Z,100.00
2023-02-03T09:39:13.943Z,100.00
2023-02-03T09:41:50.971Z,100.00
2023-02-03T09:44:22.375Z,100.00
2023-02-03T09:46:54.270Z,100.00
2023-02-03T09:49:26.906Z,100.00
2023-02-03T09:51:58.567Z,100.00
2023-02-03T09:54:34.621Z,100.00
2023-02-03T09:57:05.471Z,100.00
2023-02-03T09:59:35.028Z,100.00
2023-02-03T10:02:18.646Z,100.00
2023-02-03T10:04:56.830Z,100.00
2023-02-03T10:07:33.967Z,100.00
2023-02-03T10:10:11.991Z,100.00
2023-02-03T10:12:57.579Z,100.00
2023-02-03T10:15:43.932Z,100.00
2023-02-03T10:18:14.486Z,100.00
2023-02-03T10:20:46.546Z,100.00
2023-02-03T10:23:17.129Z,100.00
2023-02-03T10:25:47.811Z,100.00
2023-02-03T10:28:18.292Z,100.00
2023-02-03T10:30:49.676Z,100.00
2023-02-03T10:33:18.553Z,100.00
2023-02-03T10:35:50.509Z,100.00
2023-02-03T10:38:29.015Z,100.00
2023-02-03T10:40:55.683Z,100.00
2023-02-03T10:43:22.129Z,100.00
2023-02-03T10:45:48.544Z,100.00
2023-02-03T10:48:17.921Z,100.00
2023-02-03T10:50:50.229Z,100.00
2023-02-03T10:53:22.761Z,100.00
2023-02-03T10:55:52.136Z,100.00
2023-02-03T10:58:26.714Z,100.00
2023-02-03T11:00:56.752Z,100.00
2023-02-03T11:03:26.190Z,99.77
2023-02-03T11:06:09.596Z,100.00
2023-02-03T11:08:38.001Z,100.00
2023-02-03T11:11:07.063Z,100.00
2023-02-03T11:13:33.667Z,99.71
2023-02-03T11:16:02.688Z,99.14
2023-02-03T11:18:37.303Z,97.93
2023-02-03T11:21:10.381Z,97.95
2023-02-03T11:23:37.741Z,98.18
2023-02-03T11:26:13.627Z,97.64
2023-02-03T11:28:43.138Z,97.76
2023-02-03T11:31:18.451Z,96.28
2023-02-03T11:33:48.034Z,98.16
2023-02-03T11:36:17.532Z,96.98
2023-02-03T11:38:44.021Z,97.63
2023-02-03T11:41:16.697Z,98.88
2023-02-03T11:43:43.167Z,96.36
2023-02-03T11:46:09.789Z,94.86
2023-02-03T11:48:38.493Z,96.84
2023-02-03T11:51:17.925Z,94.16
2023-02-03T11:54:02.888Z,94.54
2023-02-03T11:56:47.167Z,94.55
2023-02-03T11:59:28.152Z,93.90
2023-02-03T12:02:11.271Z,91.82
2023-02-03T12:05:11.699Z,91.13
2023-02-03T12:07:52.007Z,91.80
2023-02-03T12:10:34.851Z,91.58
2023-02-03T12:13:11.895Z,90.46
2023-02-03T12:15:51.652Z,88.01
2023-02-03T12:18:35.862Z,87.87
2023-02-03T12:21:12.942Z,87.83
2023-02-03T12:23:48.173Z,86.38
2023-02-03T12:26:21.953Z,87.54
2023-02-03T12:28:54.059Z,87.35
2023-02-03T12:31:27.839Z,86.53
2023-02-03T12:34:00.822Z,82.73
2023-02-03T12:36:32.956Z,81.25
2023-02-03T12:39:06.549Z,81.99
2023-02-03T12:41:40.554Z,79.67
2023-02-03T12:44:15.904Z,78.36
2023-02-03T12:46:46.175Z,79.11
2023-02-03T12:49:29.077Z,76.33
2023-02-03T12:52:00.198Z,73.88
2023-02-03T12:54:37.219Z,74.20
2023-02-03T12:57:14.070Z,72.72
2023-02-03T12:59:42.278Z,73.37
2023-02-03T13:02:16.114Z,72.79
2023-02-03T13:04:49.310Z,70.71
2023-02-03T13:07:21.622Z,71.76
2023-02-03T13:09:54.628Z,72.58
2023-02-03T13:12:28.691Z,71.63
2023-02-03T13:14:59.405Z,71.00
2023-02-03T13:17:29.239Z,69.56
2023-02-03T13:20:00.396Z,72.08
2023-02-03T13:22:26.757Z,69.59
2023-02-03T13:24:59.496Z,70.47
2023-02-03T13:27:43.782Z,69.50
2023-02-03T13:30:40.113Z,70.18
2023-02-03T13:33:24.374Z,70.81
2023-02-03T13:36:03.329Z,69.47
2023-02-03T13:38:52.114Z,69.41
2023-02-03T13:41:24.615Z,68.65
2023-02-03T13:43:54.180Z,68.33
2023-02-03T13:46:24.626Z,68.45
2023-02-03T13:48:52.691Z,59.82
2023-02-03T13:51:22.574Z,58.77
2023-02-03T13:53:52.301Z,56.93
2023-02-03T13:56:21.771Z,58.44
2023-02-03T13:59:02.432Z,57.60
2023-02-03T14:01:32.323Z,57.78
2023-02-03T14:03:58.812Z,58.36
2023-02-03T14:06:56.407Z,58.28
2023-02-03T14:09:34.099Z,57.72
2023-02-03T14:12:20.655Z,58.60
2023-02-03T14:15:00.428Z,57.87
2023-02-03T14:17:55.773Z,57.82
2023-02-03T14:20:43.089Z,57.68
2023-02-03T14:23:16.475Z,57.31
2023-02-03T14:25:46.870Z,56.57
2023-02-03T14:28:16.854Z,56.62
2023-02-03T14:31:06.848Z,56.41
2023-02-03T14:33:53.464Z,57.07
2023-02-03T14:36:28.307Z,56.60
2023-02-03T14:38:56.215Z,57.92
2023-02-03T14:41:29.827Z,57.86
2023-02-03T14:44:07.136Z,57.58
2023-02-03T14:46:55.333Z,57.49
2023-02-03T14:49:41.437Z,57.45
2023-02-03T14:52:20.878Z,57.18
2023-02-03T14:55:10.856Z,57.19
2023-02-03T14:57:42.698Z,57.97
2023-02-03T15:00:26.744Z,58.16
2023-02-03T15:03:11.610Z,57.97
2023-02-03T15:05:41.594Z,58.14
2023-02-03T15:08:33.656Z,57.91
2023-02-03T15:11:14.396Z,57.86
2023-02-03T15:13:40.824Z,59.17
2023-02-03T15:16:14.935Z,57.87
2023-02-03T15:18:41.936Z,58.11
2023-02-03T15:21:17.450Z,59.12
2023-02-03T15:23:45.829Z,59.42
2023-02-03T15:26:13.867Z,60.47
2023-02-03T15:28:40.392Z,58.81
2023-02-03T15:31:15.265Z,58.88
2023-02-03T15:33:42.870Z,58.96
2023-02-03T15:36:18.118Z,59.28
2023-02-03T15:38:49.733Z,58.40
2023-02-03T15:41:22.804Z,58.88
2023-02-03T15:43:52.994Z,60.00
2023-02-03T15:46:26.103Z,60.61
2023-02-03T15:48:57.925Z,60.01
2023-02-03T15:51:31.352Z,60.11
2023-02-03T15:54:01.848Z,59.26
2023-02-03T15:56:35.828Z,60.12
2023-02-03T15:59:02.370Z,59.21
2023-02-03T16:01:28.916Z,59.84
2023-02-03T16:03:56.896Z,60.09
2023-02-03T16:06:28.261Z,59.87
2023-02-03T16:08:55.365Z,60.58
2023-02-03T16:11:24.465Z,60.26
2023-02-03T16:13:51.250Z,61.79
2023-02-03T16:16:22.130Z,60.89
2023-02-03T16:18:53.481Z,59.95
2023-02-03T16:21:29.109Z,60.84
2023-02-03T16:23:55.670Z,60.67
2023-02-03T16:26:23.523Z,60.61
2023-02-03T16:29:02.662Z,62.57
2023-02-03T16:31:29.155Z,62.15
2023-02-03T16:33:55.565Z,61.19
2023-02-03T16:36:22.079Z,61.70
2023-02-03T16:38:50.707Z,61.46
2023-02-03T16:41:17.833Z,62.35
2023-02-03T16:43:45.495Z,61.89
2023-02-03T16:46:12.256Z,61.37
2023-02-03T16:48:38.807Z,61.74
2023-02-03T16:51:10.914Z,62.14
2023-02-03T16:53:37.361Z,62.61
2023-02-03T16:56:05.901Z,62.51
2023-02-03T16:58:32.382Z,62.60
2023-02-03T17:01:00.675Z,62.40
2023-02-03T17:03:28.231Z,62.04
2023-02-03T17:05:55.934Z,62.35
2023-02-03T17:08:24.105Z,63.83
2023-02-03T17:10:50.681Z,63.17
2023-02-03T17:13:22.485Z,63.19
2023-02-03T17:15:51.149Z,63.25
2023-02-03T17:18:17.552Z,62.84
2023-02-03T17:20:45.413Z,64.09
2023-02-03T17:23:13.064Z,63.63
2023-02-03T17:25:40.107Z,63.88
2023-02-03T17:28:08.545Z,63.20
2023-02-03T17:30:36.434Z,62.50
2023-02-03T17:33:04.184Z,63.03
2023-02-03T17:35:30.973Z,61.99
2023-02-03T17:37:57.523Z,62.60
2023-02-03T17:54:06.855Z,62.96
2023-02-03T17:56:34.484Z,62.98
2023-02-03T17:59:03.447Z,62.02
2023-02-03T18:01:31.675Z,62.28
2023-02-03T18:03:59.726Z,63.65
2023-02-03T18:06:28.819Z,63.43
2023-02-03T18:08:55.203Z,64.41
2023-02-03T18:11:21.539Z,64.84
2023-02-03T18:13:49.440Z,65.24
2023-02-03T18:16:17.707Z,65.20
2023-02-03T18:18:45.629Z,65.79
2023-02-03T18:21:14.309Z,65.29
2023-02-03T18:23:41.244Z,65.49
2023-02-03T18:26:09.985Z,66.15
2023-02-03T18:28:37.124Z,67.80
2023-02-03T18:31:05.948Z,68.22
2023-02-03T18:33:32.639Z,67.47
2023-02-03T18:36:01.142Z,68.86
2023-02-03T18:38:28.533Z,69.18
2023-02-03T18:40:54.904Z,69.64
2023-02-03T18:43:21.443Z,69.30
2023-02-03T18:45:47.922Z,69.14
2023-02-03T18:48:14.335Z,69.50
2023-02-03T18:50:40.988Z,69.26
2023-02-03T18:53:08.860Z,68.85
2023-02-03T18:55:35.226Z,68.75
2023-02-03T18:58:01.613Z,69.29
2023-02-03T19:00:28.884Z,69.73
2023-02-03T19:02:55.530Z,70.51
2023-02-03T19:05:22.056Z,71.51
2023-02-03T19:07:48.475Z,73.30
2023-02-03T19:10:16.858Z,75.17
2023-02-03T19:12:43.347Z,76.46
2023-02-03T19:15:10.534Z,76.84
2023-02-03T19:17:37.085Z,78.46
2023-02-03T19:20:03.699Z,79.49
2023-02-03T19:22:31.458Z,81.02
2023-02-03T19:24:58.130Z,80.87
2023-02-03T19:27:25.880Z,80.05
2023-02-03T19:29:52.265Z,80.59
2023-02-03T19:32:18.644Z,80.43
2023-02-03T19:34:45.047Z,80.60
2023-02-03T19:37:11.436Z,80.28
2023-02-03T19:39:37.775Z,81.19
2023-02-03T19:42:04.262Z,79.28
2023-02-03T19:44:31.941Z,79.26
2023-02-03T19:46:58.314Z,80.01
2023-02-03T19:49:24.876Z,79.21
2023-02-03T19:51:51.311Z,78.23
2023-02-03T19:54:17.710Z,77.40
2023-02-03T19:56:44.805Z,77.82
2023-02-03T19:59:11.205Z,76.28
2023-02-03T20:01:38.965Z,76.82
2023-02-03T20:04:05.510Z,75.87
2023-02-03T20:06:31.983Z,76.37
2023-02-03T20:08:58.362Z,76.45
2023-02-03T20:11:25.097Z,77.15
2023-02-03T20:13:51.849Z,77.11
2023-02-03T20:16:18.386Z,75.88
2023-02-03T20:18:46.147Z,76.95
2023-02-03T20:21:12.686Z,76.84
2023-02-03T20:23:39.084Z,76.42
2023-02-03T20:26:06.249Z,76.51
2023-02-03T20:28:32.662Z,75.19
2023-02-03T20:31:01.385Z,75.87
2023-02-03T20:33:29.582Z,76.58
2023-02-03T20:35:57.473Z,76.28
2023-02-03T20:38:24.512Z,77.45
2023-02-03T20:40:50.953Z,76.97
2023-02-03T20:43:19.705Z,76.77
2023-02-03T20:45:46.109Z,77.52
2023-02-03T20:48:14.131Z,77.27
2023-02-03T20:50:42.933Z,77.20
2023-02-03T20:53:14.227Z,77.33
2023-02-03T20:55:40.964Z,78.52
2023-02-03T20:58:15.374Z,77.33
2023-02-03T21:00:41.751Z,77.25
2023-02-03T21:03:09.566Z,77.45
2023-02-03T21:05:37.967Z,77.76
2023-02-03T21:08:10.959Z,77.82
2023-02-03T21:10:38.836Z,76.71
2023-02-03T21:13:17.754Z,75.87
2023-02-03T21:15:44.191Z,75.94
2023-02-03T21:18:24.815Z,75.85
2023-02-03T21:20:51.255Z,77.12
2023-02-03T21:23:17.636Z,77.01
2023-02-03T21:25:45.307Z,75.74
2023-02-03T21:28:23.637Z,74.90
2023-02-03T21:30:50.028Z,74.77
2023-02-03T21:33:29.458Z,73.86
2023-02-03T21:35:55.853Z,74.99
2023-02-03T21:38:27.292Z,75.05
2023-02-03T21:40:55.186Z,73.92
2023-02-03T21:43:22.868Z,72.89
2023-02-03T21:45:49.644Z,72.21
2023-02-03T21:48:28.483Z,71.37
2023-02-03T21:50:56.464Z,71.75
2023-02-03T21:53:29.200Z,71.78
2023-02-03T21:56:10.829Z,72.61
2023-02-03T21:58:37.721Z,73.60
2023-02-03T22:01:05.560Z,75.30
2023-02-03T22:03:36.185Z,75.42
2023-02-03T22:06:15.864Z,75.49
2023-02-03T22:08:43.956Z,76.77
2023-02-03T22:11:12.105Z,75.85
2023-02-03T22:13:38.974Z,76.08
2023-02-03T22:16:05.900Z,75.33
2023-02-03T22:18:32.247Z,75.31
2023-02-03T22:20:58.863Z,74.31
2023-02-03T22:23:25.304Z,74.14
2023-02-03T22:25:51.925Z,73.04
2023-02-03T22:28:19.744Z,73.48
2023-02-03T22:30:46.310Z,73.82
2023-02-03T22:33:12.724Z,72.19
2023-02-03T22:35:39.309Z,71.35
2023-02-03T22:38:05.680Z,71.31
2023-02-03T22:40:32.426Z,71.79
2023-02-03T22:42:58.973Z,72.47
2023-02-03T22:45:26.840Z,72.16
2023-02-03T22:47:53.541Z,74.76
2023-02-03T22:50:27.430Z,75.80
2023-02-03T22:53:01.603Z,80.26
2023-02-03T22:55:27.961Z,80.14
2023-02-03T22:57:54.318Z,78.28
2023-02-03T23:00:23.100Z,78.25
2023-02-03T23:02:51.402Z,78.51
2023-02-03T23:05:18.601Z,78.16
2023-02-03T23:07:45.870Z,77.44
2023-02-03T23:10:16.052Z,77.04
2023-02-03T23:12:43.517Z,76.29
2023-02-03T23:15:10.478Z,75.95
2023-02-03T23:17:37.062Z,75.24
2023-02-03T23:20:05.788Z,75.81
2023-02-03T23:22:32.167Z,77.62
2023-02-03T23:24:59.100Z,76.38
2023-02-03T23:27:25.701Z,75.76
2023-02-03T23:29:52.156Z,76.69
2023-02-03T23:32:18.516Z,76.77
2023-02-03T23:34:44.903Z,75.70
2023-02-03T23:37:12.557Z,74.54
2023-02-03T23:39:38.928Z,73.66
2023-02-03T23:42:05.415Z,73.42
2023-02-03T23:44:31.796Z,73.79
2023-02-03T23:46:58.161Z,72.18
2023-02-03T23:49:24.711Z,72.30
2023-02-03T23:51:51.083Z,71.82
2023-02-03T23:54:18.820Z,70.81
2023-02-03T23:56:45.175Z,70.77
2023-02-03T23:59:11.917Z,69.91
